Ancona, Illinois
Current Conditions -  °F | °C
As of 1:35 AM on Saturday 01 Nov 2014 (Local Time) from KPNT Reporting Station
Overcast Overcast  
Wind Chill: 28°   Ceiling: 4700
Heat Index: 36°   Visibility: 10mi
Dew Point: 23°   Wind: 13mph
Humidity: 59%   Direction: 340°NNW
Pressure: 30.35"   Gusts: 24mph
Location:  41.04°N, 88.87°W
Report Text: KPNT 010635Z AUTO 34011G21KT 10SM OVC047 02/M05 A3035 RMK AO2 T00221050
Loading
Personal Weather Stations






























Interactive Weather Map
Tropical Storm Tracking
New forecast layout! Learn more

10-Day Weather Forecast

Advertisements
Track Severe Weather on mobile